Humidity-temperature Sensor

Selected Measurement Type: Air Temperature

 
Air Temperature [°C]     6 entries per hour
Showing data from 7/6/2019 (00:00:00 Z) to 7/5/2019 (00:01:00 Z)
Previous Next [ Day | 3-Days | 7-Days ]
First Last
Prev [ Day | 3-Days | 7-Days ] Next
First Last

Start Time:     :
End Time:     :     
Time (in GMT) :00 :50 :40 :30 :20 :10
Previous Next [ Day | 3-Days | 7-Days ]
First Last
Prev [ Day | 3-Days | 7-Days ] Next
First Last


123 => good data
MM => data is determined as missing
-- => data not received/configured
Back to Top Back to Top
7/6/2019 00:00 to 23:10 24.04 24.03 24.02 24.01 24.00 24.01
7/5/2019 23:00 to 22:10 24.07 24.02 23.99 23.98 23.97 23.98
7/5/2019 22:00 to 21:10 23.97 24.01 24.03 24.05 24.00 23.95
7/5/2019 21:00 to 20:10 24.00 24.14 24.03 24.12 24.09 24.04
7/5/2019 20:00 to 19:10 24.08 24.11 24.09 24.11 24.10 24.01
7/5/2019 19:00 to 18:10 23.95 24.01 24.02 23.95 24.03 23.99
7/5/2019 18:00 to 17:10 24.05 24.03 24.01 24.02 24.05 24.05
7/5/2019 17:00 to 16:10 24.07 24.04 24.11 24.11 24.18 24.19
7/5/2019 16:00 to 15:10 24.21 24.17 24.17 24.28 24.26 24.28
7/5/2019 15:00 to 14:10 24.24 24.28 24.32 24.18 24.12 24.11
7/5/2019 14:00 to 13:10 24.10 24.00 23.85 23.86 23.83 23.73
7/5/2019 13:00 to 12:10 23.80 23.84 23.84 23.84 23.71 23.63
7/5/2019 12:00 to 11:10 23.79 23.76 23.72 23.67 23.69 23.72
7/5/2019 11:00 to 10:10 23.74 23.75 23.75 23.75 23.77 23.78
7/5/2019 10:00 to 9:10 23.79 23.78 23.77 23.80 23.79 23.82
7/5/2019 09:00 to 8:10 23.85 23.80 23.76 23.79 23.80 23.81
7/5/2019 08:00 to 7:10 23.85 23.88 23.91 23.93 23.92 23.93
7/5/2019 07:00 to 6:10 23.96 23.98 24.00 23.97 23.97 23.98
7/5/2019 06:00 to 5:10 24.01 24.00 24.01 24.02 24.02 24.00
7/5/2019 05:00 to 4:10 23.98 23.97 23.99 24.01 24.04 24.07
7/5/2019 04:00 to 3:10 24.09 24.12 24.13 24.15 24.18 24.21
7/5/2019 03:00 to 2:10 24.22 24.19 24.19 24.16 24.15 24.17
7/5/2019 02:00 to 1:10 24.19 24.21 24.27 24.28 24.33 24.40
7/5/2019 01:00 to 0:10 24.42 24.45 24.55 24.57 24.60 24.61